Time;durP1;ratioP1;P1;durP2;ratioP2;P2;SDS_P1;SDS_P2;PMS_P1;PMS_P2;Temp;Humidity;BMP_temperature;BMP_pressure;BME280_temperature;BME280_humidity;BME280_pressure;Samples;Min_cycle;Max_cycle;Signal;HPM_P1;HPM_P2
2022/06/12 00:00:51;;;;;;;19.67;17.83;;;;;;;;;;5026153;28;20480;-73
2022/06/12 00:03:17;;;;;;;39.10;34.97;;;;;;;;;;5010076;28;20071;-72
2022/06/12 00:05:44;;;;;;;40.38;36.13;;;;;;;;;;5027282;28;20103;-72
2022/06/12 00:21:34;;;;;;;32.15;28.70;;;;;;;;;;5023763;28;20069;-72
2022/06/12 00:24:03;;;;;;;32.47;28.83;;;;;;;;;;5027560;28;20048;-72
2022/06/12 00:26:33;;;;;;;32.33;24.83;;;;;;;;;;5009986;28;20123;-72
2022/06/12 00:28:59;;;;;;;28.73;25.80;;;;;;;;;;5027095;28;20057;-73
2022/06/12 00:31:25;;;;;;;32.80;25.40;;;;;;;;;;5027694;28;20096;-73
2022/06/12 00:33:51;;;;;;;22.42;19.98;;;;;;;;;;5009542;28;20132;-71
2022/06/12 00:36:17;;;;;;;21.20;19.30;;;;;;;;;;5027665;28;20132;-71
2022/06/12 00:38:43;;;;;;;22.75;20.48;;;;;;;;;;5027317;28;20064;-71
2022/06/12 00:41:09;;;;;;;23.83;21.30;;;;;;;;;;5027668;28;20045;-73
2022/06/12 00:43:35;;;;;;;17.70;15.98;;;;;;;;;;5031461;28;20513;-72
2022/06/12 00:46:01;;;;;;;19.10;17.25;;;;;;;;;;5031355;28;20056;-72
2022/06/12 00:48:32;;;;;;;15.98;14.68;;;;;;;;;;5013594;28;20532;-72
2022/06/12 00:50:59;;;;;;;15.77;14.40;;;;;;;;;;5031415;28;20116;-72
2022/06/12 00:53:33;;;;;;;18.00;16.17;;;;;;;;;;5013205;28;20222;-72
2022/06/12 00:56:12;;;;;;;17.95;16.38;;;;;;;;;;5030998;28;20096;-72
2022/06/12 00:58:39;;;;;;;19.45;17.67;;;;;;;;;;5029893;28;20049;-71
2022/06/12 01:01:05;;;;;;;19.48;17.58;;;;;;;;;;5031171;28;20041;-72
2022/06/12 01:03:31;;;;;;;19.80;18.00;;;;;;;;;;5029620;28;20429;-72
2022/06/12 01:08:42;;;;;;;18.67;16.77;;;;;;;;;;5031023;28;20037;-73
2022/06/12 01:11:09;;;;;;;19.50;17.70;;;;;;;;;;5013109;28;20125;-72
2022/06/12 01:13:39;;;;;;;21.80;18.02;;;;;;;;;;5030704;28;20080;-73
2022/06/12 01:16:06;;;;;;;20.75;18.63;;;;;;;;;;5012949;28;20041;-72
2022/06/12 01:18:34;;;;;;;20.60;18.58;;;;;;;;;;5013026;28;20139;-72
2022/06/12 01:21:18;;;;;;;19.23;17.48;;;;;;;;;;5030120;28;20049;-73
2022/06/12 01:24:07;;;;;;;18.98;16.83;;;;;;;;;;5030395;28;20065;-71
2022/06/12 01:26:49;;;;;;;19.13;17.30;;;;;;;;;;5025196;28;20115;-72
2022/06/12 01:29:14;;;;;;;22.05;18.02;;;;;;;;;;5030455;28;20060;-72
2022/06/12 01:32:01;;;;;;;21.38;18.45;;;;;;;;;;5030391;28;20037;-73
2022/06/12 01:34:33;;;;;;;19.70;17.83;;;;;;;;;;5029112;28;20112;-72
2022/06/12 01:37:22;;;;;;;18.23;16.52;;;;;;;;;;4996133;28;20464;-70
2022/06/12 01:39:48;;;;;;;18.60;16.50;;;;;;;;;;5006895;28;20038;-71
2022/06/12 01:42:14;;;;;;;18.45;16.75;;;;;;;;;;5030530;28;20572;-71
2022/06/12 01:44:40;;;;;;;19.45;16.95;;;;;;;;;;5029045;28;20049;-71
2022/06/12 01:47:06;;;;;;;21.30;18.42;;;;;;;;;;5030160;28;20527;-71
2022/06/12 01:49:36;;;;;;;19.08;17.27;;;;;;;;;;5030110;28;20521;-70
2022/06/12 01:52:01;;;;;;;16.23;14.82;;;;;;;;;;5029764;28;20033;-73
2022/06/12 01:54:32;;;;;;;11.32;10.25;;;;;;;;;;5028777;28;20054;-72
2022/06/12 01:56:58;;;;;;;12.80;9.52;;;;;;;;;;5028613;28;20116;-73
2022/06/12 01:59:27;;;;;;;10.43;9.35;;;;;;;;;;5029856;28;20137;-72
2022/06/12 02:02:01;;;;;;;11.60;10.60;;;;;;;;;;5011946;28;20029;-73
2022/06/12 02:04:36;;;;;;;12.82;10.90;;;;;;;;;;5029867;28;20481;-71
2022/06/12 02:07:11;;;;;;;11.88;10.77;;;;;;;;;;5011994;28;20041;-72
2022/06/12 02:09:48;;;;;;;12.90;11.85;;;;;;;;;;5028502;28;20037;-73
2022/06/12 02:15:02;;;;;;;12.10;11.00;;;;;;;;;;5029342;28;20128;-73
2022/06/12 02:17:30;;;;;;;11.55;10.65;;;;;;;;;;5033029;28;20103;-72
2022/06/12 02:19:56;;;;;;;12.27;10.68;;;;;;;;;;5034947;28;20077;-71
2022/06/12 02:22:24;;;;;;;12.38;11.32;;;;;;;;;;5030942;28;20061;-74
2022/06/12 02:24:51;;;;;;;11.80;10.63;;;;;;;;;;5029285;28;20045;-71
2022/06/12 02:27:22;;;;;;;19.23;11.35;;;;;;;;;;5029401;28;20037;-73
2022/06/12 02:29:53;;;;;;;13.25;10.85;;;;;;;;;;5028932;28;20152;-73
2022/06/12 02:32:21;;;;;;;12.55;11.48;;;;;;;;;;5028290;28;20048;-73
2022/06/12 02:34:57;;;;;;;11.75;10.68;;;;;;;;;;4994729;28;20411;-71
2022/06/12 02:37:24;;;;;;;12.65;11.35;;;;;;;;;;5027951;28;20040;-72
2022/06/12 02:39:51;;;;;;;13.20;11.93;;;;;;;;;;5010954;28;20071;-72
2022/06/12 02:42:18;;;;;;;14.73;13.15;;;;;;;;;;5027746;28;20422;-72
2022/06/12 02:44:55;;;;;;;14.25;12.85;;;;;;;;;;5027504;28;20403;-74
2022/06/12 02:47:23;;;;;;;13.18;11.95;;;;;;;;;;5028997;28;20037;-72
2022/06/12 02:49:49;;;;;;;14.63;13.27;;;;;;;;;;5010833;28;20080;-72
2022/06/12 02:52:18;;;;;;;16.38;13.13;;;;;;;;;;5027620;28;20045;-71
2022/06/12 02:54:53;;;;;;;14.05;12.77;;;;;;;;;;5027259;28;20080;-72
2022/06/12 02:57:28;;;;;;;15.23;12.95;;;;;;;;;;5010963;28;20063;-72
2022/06/12 03:00:03;;;;;;;14.02;12.88;;;;;;;;;;5028468;28;20059;-70
2022/06/12 03:02:37;;;;;;;14.48;13.40;;;;;;;;;;5010921;28;20096;-72
2022/06/12 03:05:05;;;;;;;17.48;15.82;;;;;;;;;;5026343;28;20730;-72
2022/06/12 03:07:31;;;;;;;16.23;14.73;;;;;;;;;;5028557;28;20057;-72
2022/06/12 03:09:59;;;;;;;14.43;12.95;;;;;;;;;;5028115;28;20034;-70
2022/06/12 03:12:27;;;;;;;13.07;11.93;;;;;;;;;;5027381;28;20061;-71
2022/06/12 03:14:54;;;;;;;10.57;9.60;;;;;;;;;;4993898;28;20406;-73
2022/06/12 03:17:20;;;;;;;12.02;11.02;;;;;;;;;;5028356;28;20044;-72
2022/06/12 03:19:47;;;;;;;11.27;10.32;;;;;;;;;;4994312;28;20435;-70
2022/06/12 03:22:31;;;;;;;10.45;9.50;;;;;;;;;;5028220;28;20093;-70
2022/06/12 03:24:57;;;;;;;11.10;10.00;;;;;;;;;;5028037;28;20049;-71
2022/06/12 03:27:33;;;;;;;11.15;9.63;;;;;;;;;;5010573;28;20096;-71
2022/06/12 03:30:04;;;;;;;10.20;9.23;;;;;;;;;;5027894;28;20103;-71
2022/06/12 03:32:30;;;;;;;12.38;9.23;;;;;;;;;;5028434;28;20033;-72
2022/06/12 03:34:59;;;;;;;10.25;9.27;;;;;;;;;;5009708;28;20053;-72
2022/06/12 03:37:34;;;;;;;9.35;8.20;;;;;;;;;;5010305;28;20506;-72
2022/06/12 03:40:07;;;;;;;8.77;8.02;;;;;;;;;;5027727;28;20045;-72
2022/06/12 03:42:33;;;;;;;9.38;8.57;;;;;;;;;;5028048;28;20045;-72
2022/06/12 03:45:04;;;;;;;9.57;8.68;;;;;;;;;;5027708;28;20525;-71
2022/06/12 03:47:40;;;;;;;13.90;12.70;;;;;;;;;;4994127;28;20099;-73
2022/06/12 03:50:12;;;;;;;12.45;11.43;;;;;;;;;;5027656;28;20088;-71
2022/06/12 03:52:42;;;;;;;14.40;11.77;;;;;;;;;;5028131;28;20056;-74
2022/06/12 03:55:09;;;;;;;11.55;10.38;;;;;;;;;;5009811;28;20144;-72
2022/06/12 03:57:56;;;;;;;15.52;13.02;;;;;;;;;;4994247;28;20446;-73
2022/06/12 04:00:38;;;;;;;14.02;12.85;;;;;;;;;;4994037;28;20092;-73
2022/06/12 04:03:13;;;;;;;13.52;12.43;;;;;;;;;;5027306;28;20037;-72
2022/06/12 04:05:53;;;;;;;11.32;10.40;;;;;;;;;;5027888;28;20076;-73
2022/06/12 04:08:39;;;;;;;11.90;10.68;;;;;;;;;;5026657;28;20045;-72
2022/06/12 04:11:08;;;;;;;13.27;11.40;;;;;;;;;;5026784;28;20038;-71
2022/06/12 04:13:37;;;;;;;12.25;11.18;;;;;;;;;;5026377;28;20053;-72
2022/06/12 04:16:18;;;;;;;13.25;11.98;;;;;;;;;;5027665;28;20065;-72
2022/06/12 04:18:45;;;;;;;14.60;13.25;;;;;;;;;;5031871;28;20046;-72
2022/06/12 04:21:12;;;;;;;16.10;11.90;;;;;;;;;;5031323;28;20401;-72
2022/06/12 04:23:44;;;;;;;15.23;14.00;;;;;;;;;;5030290;28;20422;-72
2022/06/12 04:26:18;;;;;;;16.05;14.73;;;;;;;;;;5031582;28;20515;-73
2022/06/12 04:28:45;;;;;;;19.98;16.50;;;;;;;;;;5030433;28;20140;-72
2022/06/12 04:31:18;;;;;;;20.05;17.88;;;;;;;;;;5031823;28;20034;-73
2022/06/12 04:33:50;;;;;;;22.38;19.92;;;;;;;;;;5031459;28;20045;-72
2022/06/12 04:36:16;;;;;;;21.92;18.40;;;;;;;;;;5031530;28;20045;-72
2022/06/12 04:38:42;;;;;;;19.25;17.25;;;;;;;;;;5031532;28;20041;-72
2022/06/12 04:41:08;;;;;;;15.68;14.07;;;;;;;;;;5031044;28;20046;-72
2022/06/12 04:43:34;;;;;;;14.70;13.57;;;;;;;;;;5031400;28;20530;-72
2022/06/12 04:45:59;;;;;;;15.30;13.55;;;;;;;;;;5031017;28;20104;-72
2022/06/12 04:48:35;;;;;;;12.85;11.77;;;;;;;;;;5031130;28;20483;-72
2022/06/12 04:51:01;;;;;;;13.30;12.00;;;;;;;;;;5013188;28;20081;-71
2022/06/12 04:53:27;;;;;;;14.27;13.07;;;;;;;;;;5029951;28;20053;-72
2022/06/12 04:55:53;;;;;;;12.77;11.68;;;;;;;;;;5030797;28;20053;-74
2022/06/12 04:58:19;;;;;;;15.95;12.50;;;;;;;;;;5031219;28;20115;-73
2022/06/12 05:00:45;;;;;;;11.95;10.95;;;;;;;;;;5031138;28;20497;-74
2022/06/12 05:03:12;;;;;;;10.52;9.43;;;;;;;;;;5030728;28;20429;-72
2022/06/12 05:05:38;;;;;;;10.38;9.50;;;;;;;;;;5030865;28;20048;-72
2022/06/12 05:08:04;;;;;;;11.32;10.43;;;;;;;;;;5030753;28;20041;-72
2022/06/12 05:10:30;;;;;;;11.02;10.13;;;;;;;;;;5013336;28;20133;-70
2022/06/12 05:12:56;;;;;;;9.95;9.13;;;;;;;;;;5031305;28;20120;-73
2022/06/12 05:15:22;;;;;;;9.07;8.25;;;;;;;;;;5033701;28;20089;-72
2022/06/12 05:17:48;;;;;;;8.57;7.72;;;;;;;;;;5035975;28;20045;-73
2022/06/12 05:20:19;;;;;;;9.57;8.10;;;;;;;;;;5034248;28;20422;-73
2022/06/12 05:22:45;;;;;;;9.10;8.32;;;;;;;;;;5012962;28;20497;-72
2022/06/12 05:25:11;;;;;;;11.43;7.55;;;;;;;;;;5030015;28;20128;-72
2022/06/12 05:27:37;;;;;;;11.13;10.18;;;;;;;;;;5029815;28;20045;-72
2022/06/12 05:30:05;;;;;;;10.90;9.80;;;;;;;;;;5030175;28;20544;-74
2022/06/12 05:32:31;;;;;;;10.48;9.57;;;;;;;;;;5012620;28;20422;-72
2022/06/12 05:34:57;;;;;;;9.90;9.05;;;;;;;;;;5029981;28;20054;-73
2022/06/12 05:37:22;;;;;;;11.07;9.98;;;;;;;;;;5030317;28;20072;-72
2022/06/12 05:39:48;;;;;;;10.23;8.02;;;;;;;;;;5012433;28;20041;-73
2022/06/12 05:42:14;;;;;;;8.50;6.75;;;;;;;;;;5030044;28;20400;-71
2022/06/12 05:44:40;;;;;;;8.23;7.20;;;;;;;;;;5028997;28;20065;-73
2022/06/12 05:47:06;;;;;;;7.70;7.10;;;;;;;;;;5029900;28;20048;-74
2022/06/12 05:49:32;;;;;;;7.82;7.03;;;;;;;;;;5012784;28;20041;-74
2022/06/12 05:51:59;;;;;;;5.13;4.82;;;;;;;;;;5030267;28;20068;-73
2022/06/12 05:54:25;;;;;;;6.43;6.03;;;;;;;;;;4996401;28;20544;-74
2022/06/12 05:56:51;;;;;;;6.70;6.13;;;;;;;;;;5031116;28;20045;-74
2022/06/12 05:59:17;;;;;;;6.63;6.10;;;;;;;;;;5030931;28;20049;-73
2022/06/12 06:01:43;;;;;;;6.47;5.95;;;;;;;;;;5031153;28;20041;-75
2022/06/12 06:04:09;;;;;;;6.78;6.28;;;;;;;;;;5030816;28;20073;-72
2022/06/12 06:06:35;;;;;;;7.32;6.65;;;;;;;;;;5013504;28;20038;-72
2022/06/12 06:09:02;;;;;;;7.65;6.85;;;;;;;;;;5030592;28;20044;-73
2022/06/12 06:11:27;;;;;;;7.80;7.10;;;;;;;;;;5030345;28;20069;-73
2022/06/12 06:13:53;;;;;;;5.63;5.13;;;;;;;;;;5029535;28;20548;-73
2022/06/12 06:16:19;;;;;;;5.85;5.38;;;;;;;;;;5029490;28;20033;-72
2022/06/12 06:18:45;;;;;;;8.57;5.00;;;;;;;;;;5029748;28;20497;-72
2022/06/12 06:21:11;;;;;;;10.68;6.00;;;;;;;;;;5011374;28;20042;-73
2022/06/12 06:23:38;;;;;;;5.75;5.30;;;;;;;;;;5028110;28;20061;-72
2022/06/12 06:26:04;;;;;;;7.85;5.00;;;;;;;;;;5029274;28;20068;-73
2022/06/12 06:28:30;;;;;;;5.18;4.82;;;;;;;;;;5029463;28;20486;-73
2022/06/12 06:30:56;;;;;;;5.20;4.90;;;;;;;;;;5029628;28;20041;-73
2022/06/12 06:33:22;;;;;;;7.43;4.90;;;;;;;;;;5029905;28;20064;-74
2022/06/12 06:35:49;;;;;;;7.47;5.30;;;;;;;;;;5030986;28;20509;-73
2022/06/12 06:38:15;;;;;;;6.68;6.18;;;;;;;;;;5012445;28;20041;-72
2022/06/12 06:40:41;;;;;;;7.85;7.25;;;;;;;;;;4995454;28;20182;-75
2022/06/12 06:43:07;;;;;;;6.22;5.72;;;;;;;;;;5030044;28;20126;-72
2022/06/12 06:48:18;;;;;;;8.35;5.93;;;;;;;;;;5030044;28;20120;-72
2022/06/12 06:50:43;;;;;;;6.90;6.40;;;;;;;;;;5011707;28;20053;-73
2022/06/12 06:53:10;;;;;;;6.20;5.80;;;;;;;;;;5028984;28;20029;-72
2022/06/12 06:55:36;;;;;;;7.30;5.53;;;;;;;;;;5027801;28;20045;-75
2022/06/12 06:58:04;;;;;;;6.20;5.70;;;;;;;;;;5028812;28;20033;-75
2022/06/12 07:00:31;;;;;;;6.40;5.88;;;;;;;;;;5011123;28;20550;-72
2022/06/12 07:02:57;;;;;;;6.25;5.65;;;;;;;;;;5028631;28;20045;-74
2022/06/12 07:05:23;;;;;;;6.78;6.28;;;;;;;;;;5028465;28;20075;-75
2022/06/12 07:07:49;;;;;;;5.90;5.45;;;;;;;;;;5028763;28;20040;-73
2022/06/12 07:10:16;;;;;;;5.85;5.45;;;;;;;;;;5010517;28;20045;-73
2022/06/12 07:12:42;;;;;;;6.13;5.60;;;;;;;;;;5028827;28;20421;-71
2022/06/12 07:15:08;;;;;;;5.93;5.43;;;;;;;;;;5028127;28;20059;-72
2022/06/12 07:17:34;;;;;;;9.60;8.93;;;;;;;;;;5010767;28;20477;-74
2022/06/12 07:20:00;;;;;;;10.77;9.75;;;;;;;;;;5010929;28;20041;-72
2022/06/12 07:22:26;;;;;;;6.07;5.63;;;;;;;;;;5028337;28;20188;-73
2022/06/12 07:24:52;;;;;;;7.45;5.63;;;;;;;;;;5028529;28;20132;-72
2022/06/12 07:27:19;;;;;;;6.40;5.80;;;;;;;;;;5028040;28;20044;-73
2022/06/12 07:29:45;;;;;;;6.97;6.30;;;;;;;;;;5010722;28;20046;-74
2022/06/12 07:32:11;;;;;;;9.25;6.07;;;;;;;;;;4977876;28;20429;-72
2022/06/12 07:34:37;;;;;;;6.20;5.55;;;;;;;;;;5027921;28;20525;-73
2022/06/12 07:37:03;;;;;;;13.20;11.98;;;;;;;;;;5010486;28;20033;-73
2022/06/12 07:39:29;;;;;;;6.80;6.13;;;;;;;;;;5027287;28;20539;-72
2022/06/12 07:41:55;;;;;;;5.22;4.93;;;;;;;;;;5027997;28;20092;-72
2022/06/12 07:44:21;;;;;;;5.50;5.10;;;;;;;;;;5010157;28;20037;-72
2022/06/12 07:46:48;;;;;;;6.88;5.40;;;;;;;;;;5028172;28;20056;-73
2022/06/12 07:49:14;;;;;;;9.55;5.70;;;;;;;;;;5027507;28;20181;-73
2022/06/12 07:51:41;;;;;;;6.03;5.53;;;;;;;;;;5028035;28;20077;-74
2022/06/12 07:54:06;;;;;;;6.20;5.10;;;;;;;;;;5009712;28;20282;-73
2022/06/12 07:56:32;;;;;;;5.15;4.75;;;;;;;;;;5026765;28;20223;-73
2022/06/12 07:58:58;;;;;;;5.65;5.20;;;;;;;;;;5027744;28;20056;-73
2022/06/12 08:01:25;;;;;;;7.18;5.05;;;;;;;;;;5027698;28;20037;-73
2022/06/12 08:03:51;;;;;;;5.90;4.93;;;;;;;;;;5010153;28;20041;-74
2022/06/12 08:06:17;;;;;;;8.30;5.20;;;;;;;;;;5027561;28;20447;-74
2022/06/12 08:08:43;;;;;;;8.15;5.40;;;;;;;;;;5010436;28;20053;-73
2022/06/12 08:11:09;;;;;;;5.53;4.90;;;;;;;;;;5026770;28;20041;-73
2022/06/12 08:13:35;;;;;;;7.07;5.10;;;;;;;;;;4997347;28;20061;-73
2022/06/12 08:16:01;;;;;;;5.10;4.80;;;;;;;;;;5031507;28;20132;-73
2022/06/12 08:18:27;;;;;;;5.20;4.82;;;;;;;;;;5027966;28;20056;-71
2022/06/12 08:20:54;;;;;;;5.13;4.78;;;;;;;;;;5027218;28;20581;-72
2022/06/12 08:23:28;;;;;;;4.75;4.40;;;;;;;;;;5027006;28;20536;-73
2022/06/12 08:25:54;;;;;;;4.28;3.97;;;;;;;;;;5010839;28;20236;-72
2022/06/12 08:28:20;;;;;;;4.13;3.92;;;;;;;;;;4993690;28;20382;-72
2022/06/12 08:30:46;;;;;;;7.10;4.05;;;;;;;;;;5027555;28;20316;-74
2022/06/12 08:33:12;;;;;;;4.18;3.85;;;;;;;;;;5027951;28;20263;-73
2022/06/12 08:35:38;;;;;;;4.57;3.60;;;;;;;;;;5027372;28;20077;-72
2022/06/12 08:38:04;;;;;;;6.20;3.70;;;;;;;;;;5027467;28;20359;-73
2022/06/12 08:40:48;;;;;;;3.95;3.65;;;;;;;;;;5027208;28;20033;-74
2022/06/12 08:43:32;;;;;;;3.47;3.10;;;;;;;;;;5027176;28;20045;-74
2022/06/12 08:46:00;;;;;;;3.03;2.83;;;;;;;;;;5027398;28;20052;-74
2022/06/12 08:48:26;;;;;;;3.95;2.90;;;;;;;;;;5009428;28;20382;-74
2022/06/12 08:51:13;;;;;;;3.28;3.08;;;;;;;;;;5027217;28;20037;-73
2022/06/12 08:53:51;;;;;;;4.57;4.18;;;;;;;;;;5009846;28;20049;-73
2022/06/12 08:56:19;;;;;;;3.67;3.25;;;;;;;;;;5009482;28;20063;-73
2022/06/12 08:58:50;;;;;;;3.70;3.50;;;;;;;;;;5009823;28;20045;-73
2022/06/12 09:01:16;;;;;;;3.92;3.63;;;;;;;;;;5009230;28;20030;-74
2022/06/12 09:03:49;;;;;;;4.07;3.78;;;;;;;;;;5029599;28;20577;-74
2022/06/12 09:06:21;;;;;;;3.58;3.28;;;;;;;;;;5030610;28;20096;-73
2022/06/12 09:08:48;;;;;;;3.92;3.72;;;;;;;;;;5030934;28;20747;-72
2022/06/12 09:11:14;;;;;;;4.65;4.25;;;;;;;;;;4996406;28;20041;-71
2022/06/12 09:13:42;;;;;;;5.55;4.07;;;;;;;;;;5030773;28;20053;-72
2022/06/12 09:16:26;;;;;;;5.32;4.93;;;;;;;;;;5012909;28;20103;-74
2022/06/12 09:18:58;;;;;;;5.82;5.32;;;;;;;;;;5013509;28;20049;-73
2022/06/12 09:21:25;;;;;;;4.53;4.22;;;;;;;;;;4996332;28;20053;-74
2022/06/12 09:23:54;;;;;;;4.50;4.10;;;;;;;;;;5013006;28;20069;-73
2022/06/12 09:26:26;;;;;;;4.50;3.25;;;;;;;;;;5030520;28;20043;-74
2022/06/12 09:28:59;;;;;;;3.42;3.22;;;;;;;;;;5030861;28;20417;-74
2022/06/12 09:31:29;;;;;;;3.83;3.40;;;;;;;;;;5012646;28;20053;-73
2022/06/12 09:34:16;;;;;;;3.75;3.55;;;;;;;;;;5030430;28;20136;-73
2022/06/12 09:36:51;;;;;;;5.55;3.78;;;;;;;;;;5029931;28;20746;-72
2022/06/12 09:39:38;;;;;;;3.83;3.53;;;;;;;;;;5012086;28;20050;-73
2022/06/12 09:42:07;;;;;;;8.45;3.50;;;;;;;;;;5012535;28;20584;-72
2022/06/12 09:44:36;;;;;;;3.50;3.30;;;;;;;;;;5011980;28;20045;-74
2022/06/12 09:47:09;;;;;;;3.90;3.60;;;;;;;;;;5012502;28;20064;-73
2022/06/12 09:49:41;;;;;;;10.25;9.38;;;;;;;;;;5012319;28;20053;-72
2022/06/12 09:52:07;;;;;;;3.72;3.45;;;;;;;;;;5030138;28;20112;-74
2022/06/12 09:54:39;;;;;;;3.60;3.40;;;;;;;;;;5029683;28;20056;-72
2022/06/12 09:57:05;;;;;;;4.43;3.80;;;;;;;;;;5029987;28;20224;-73
2022/06/12 09:59:31;;;;;;;6.55;3.88;;;;;;;;;;5029713;28;20136;-73
2022/06/12 10:01:57;;;;;;;4.53;3.78;;;;;;;;;;5030054;28;20045;-73
2022/06/12 10:04:25;;;;;;;5.63;3.40;;;;;;;;;;5028363;28;20048;-72
2022/06/12 10:07:06;;;;;;;4.57;3.83;;;;;;;;;;5011922;28;20107;-74
2022/06/12 10:09:32;;;;;;;5.18;3.65;;;;;;;;;;4995806;28;20600;-72
2022/06/12 10:12:03;;;;;;;4.20;3.90;;;;;;;;;;5030038;28;20429;-73
2022/06/12 10:14:33;;;;;;;5.32;4.20;;;;;;;;;;5029224;28;20041;-74
2022/06/12 10:17:01;;;;;;;5.85;4.30;;;;;;;;;;5012083;28;20164;-73
2022/06/12 10:19:41;;;;;;;4.50;4.10;;;;;;;;;;5011700;28;20041;-74
2022/06/12 10:22:10;;;;;;;4.65;4.30;;;;;;;;;;4996118;28;20133;-74
2022/06/12 10:24:36;;;;;;;8.32;4.43;;;;;;;;;;4992097;28;20520;-74
2022/06/12 10:27:02;;;;;;;4.68;4.15;;;;;;;;;;5009870;28;20056;-73
2022/06/12 10:29:28;;;;;;;5.22;4.00;;;;;;;;;;5009476;28;20514;-74
2022/06/12 10:32:01;;;;;;;4.43;4.00;;;;;;;;;;4992347;28;20045;-73
2022/06/12 10:34:28;;;;;;;4.82;4.40;;;;;;;;;;5009299;28;20582;-74
2022/06/12 10:36:55;;;;;;;5.03;4.55;;;;;;;;;;4992082;28;20049;-74
2022/06/12 10:39:22;;;;;;;4.65;4.18;;;;;;;;;;4991523;28;20049;-74
2022/06/12 10:41:48;;;;;;;4.97;4.63;;;;;;;;;;5009467;28;20034;-73
2022/06/12 10:44:25;;;;;;;7.05;4.20;;;;;;;;;;5009334;28;20407;-73
2022/06/12 10:46:51;;;;;;;4.95;4.20;;;;;;;;;;4991692;28;20048;-74
2022/06/12 10:49:17;;;;;;;5.78;4.28;;;;;;;;;;4991433;28;20050;-72
2022/06/12 10:51:43;;;;;;;7.25;4.32;;;;;;;;;;5009272;28;20093;-72
2022/06/12 10:54:09;;;;;;;5.25;4.43;;;;;;;;;;5009225;28;20064;-73
2022/06/12 10:56:38;;;;;;;4.70;4.30;;;;;;;;;;5008718;28;20073;-73
2022/06/12 10:59:27;;;;;;;11.15;4.35;;;;;;;;;;5009537;28;20038;-73
2022/06/12 11:01:57;;;;;;;6.13;4.73;;;;;;;;;;4970228;28;20045;-74
2022/06/12 11:04:29;;;;;;;4.75;4.35;;;;;;;;;;5009051;28;20120;-74
2022/06/12 11:07:11;;;;;;;4.97;4.53;;;;;;;;;;4992474;28;20049;-73
2022/06/12 11:09:51;;;;;;;8.23;4.95;;;;;;;;;;5011128;28;20055;-74
2022/06/12 11:12:24;;;;;;;5.07;4.32;;;;;;;;;;5013200;28;20042;-74
2022/06/12 11:15:02;;;;;;;4.88;4.43;;;;;;;;;;4992656;28;20061;-73
2022/06/12 11:17:47;;;;;;;4.93;4.63;;;;;;;;;;5008886;28;20050;-73
2022/06/12 11:20:32;;;;;;;5.05;4.13;;;;;;;;;;5008760;28;20041;-73
2022/06/12 11:23:15;;;;;;;4.38;4.07;;;;;;;;;;5028800;28;20104;-74
2022/06/12 11:25:59;;;;;;;4.45;4.00;;;;;;;;;;5027942;28;20045;-73
2022/06/12 11:28:44;;;;;;;4.32;4.03;;;;;;;;;;5026916;28;20506;-74
2022/06/12 11:31:26;;;;;;;4.43;4.05;;;;;;;;;;5028115;28;20038;-74
2022/06/12 11:34:10;;;;;;;6.22;4.53;;;;;;;;;;5010738;28;20053;-72
2022/06/12 11:36:39;;;;;;;5.20;4.03;;;;;;;;;;5027895;28;20438;-73
2022/06/12 11:39:12;;;;;;;4.65;3.33;;;;;;;;;;5028208;28;20673;-73
2022/06/12 11:41:44;;;;;;;4.10;3.80;;;;;;;;;;5010314;28;20041;-74
2022/06/12 11:44:13;;;;;;;3.92;3.65;;;;;;;;;;5028087;28;20115;-72
2022/06/12 11:46:46;;;;;;;3.75;3.45;;;;;;;;;;5027823;28;20057;-73
2022/06/12 11:49:33;;;;;;;4.00;3.70;;;;;;;;;;5010755;28;20037;-73
2022/06/12 11:52:12;;;;;;;3.83;3.53;;;;;;;;;;5010697;28;20045;-73
2022/06/12 11:54:39;;;;;;;5.18;3.70;;;;;;;;;;5027796;28;20103;-73
2022/06/12 11:57:13;;;;;;;4.28;3.67;;;;;;;;;;5027991;28;20041;-73
2022/06/12 11:59:45;;;;;;;3.90;3.60;;;;;;;;;;5027676;28;20413;-73
2022/06/12 12:02:13;;;;;;;4.03;3.65;;;;;;;;;;5027771;28;20477;-73
2022/06/12 12:04:52;;;;;;;4.38;3.40;;;;;;;;;;5009955;28;20532;-73
2022/06/12 12:07:22;;;;;;;3.67;3.45;;;;;;;;;;5009911;28;20037;-74
2022/06/12 12:10:06;;;;;;;4.60;3.58;;;;;;;;;;5027924;28;20057;-72
2022/06/12 12:12:39;;;;;;;4.70;4.30;;;;;;;;;;5009862;28;20505;-73
2022/06/12 12:15:07;;;;;;;4.47;4.07;;;;;;;;;;5010167;28;20046;-73
2022/06/12 12:17:42;;;;;;;4.28;3.20;;;;;;;;;;5009896;28;20172;-73
2022/06/12 12:20:14;;;;;;;4.93;3.03;;;;;;;;;;5027575;28;20140;-71
2022/06/12 12:22:47;;;;;;;3.30;3.10;;;;;;;;;;4994141;28;20048;-74
2022/06/12 12:25:19;;;;;;;8.50;3.92;;;;;;;;;;5010686;28;20130;-73
2022/06/12 12:27:46;;;;;;;3.05;2.85;;;;;;;;;;5027911;28;20128;-73
2022/06/12 12:30:22;;;;;;;3.28;3.03;;;;;;;;;;4993205;28;20461;-74
2022/06/12 12:32:49;;;;;;;2.92;2.78;;;;;;;;;;5027540;28;20132;-73
2022/06/12 12:41:11;;;;;;;3.40;3.20;;;;;;;;;;5027469;28;20046;-72
2022/06/12 12:43:31;;;;;;;4.13;3.83;;;;;;;;;;5031442;28;20042;-72
2022/06/12 12:45:58;;;;;;;3.47;3.20;;;;;;;;;;5031411;28;20421;-72
2022/06/12 12:48:24;;;;;;;3.40;3.20;;;;;;;;;;5013415;28;20128;-74
2022/06/12 12:50:51;;;;;;;5.95;2.92;;;;;;;;;;5031342;28;20049;-72
2022/06/12 12:53:44;;;;;;;3.60;3.30;;;;;;;;;;5031353;28;20072;-73
2022/06/12 12:56:10;;;;;;;7.43;5.13;;;;;;;;;;5010384;28;20529;-73
2022/06/12 12:58:56;;;;;;;5.70;3.03;;;;;;;;;;5013383;28;20548;-74
2022/06/12 13:01:26;;;;;;;3.05;2.85;;;;;;;;;;4996827;28;20049;-72
2022/06/12 13:03:53;;;;;;;5.32;2.83;;;;;;;;;;5031252;28;20049;-74
2022/06/12 13:06:41;;;;;;;3.05;2.85;;;;;;;;;;5013469;28;20041;-73
2022/06/12 13:09:10;;;;;;;3.10;2.75;;;;;;;;;;5013391;28;20037;-71
2022/06/12 13:11:54;;;;;;;5.80;3.08;;;;;;;;;;5030689;28;20148;-73
2022/06/12 13:14:39;;;;;;;3.05;2.95;;;;;;;;;;5030741;28;20119;-74
2022/06/12 13:17:14;;;;;;;4.38;2.78;;;;;;;;;;5030854;28;20044;-73
2022/06/12 13:19:58;;;;;;;3.08;2.85;;;;;;;;;;5030639;28;20035;-71
2022/06/12 13:22:25;;;;;;;3.20;3.00;;;;;;;;;;5025627;28;20046;-74
2022/06/12 13:24:54;;;;;;;3.97;3.10;;;;;;;;;;5010877;28;20056;-75
2022/06/12 13:27:22;;;;;;;3.78;3.47;;;;;;;;;;5009894;28;20065;-73
2022/06/12 13:29:48;;;;;;;3.35;3.15;;;;;;;;;;5010768;28;20056;-73
2022/06/12 13:32:21;;;;;;;3.70;3.40;;;;;;;;;;5010529;28;20033;-73
2022/06/12 13:34:54;;;;;;;3.17;3.05;;;;;;;;;;5009198;28;20054;-73
2022/06/12 13:37:20;;;;;;;7.60;3.42;;;;;;;;;;5010525;28;20584;-73
2022/06/12 13:39:47;;;;;;;3.47;3.17;;;;;;;;;;5010495;28;20102;-72
2022/06/12 13:42:14;;;;;;;3.30;3.08;;;;;;;;;;5025835;28;20040;-73
2022/06/12 13:44:43;;;;;;;3.55;3.25;;;;;;;;;;5010524;28;20498;-72
2022/06/12 13:47:19;;;;;;;3.97;3.35;;;;;;;;;;5026029;28;20041;-72
2022/06/12 13:49:50;;;;;;;4.32;3.97;;;;;;;;;;5009959;28;20042;-74
2022/06/12 13:52:16;;;;;;;3.22;2.92;;;;;;;;;;5008499;28;20038;-74
2022/06/12 13:54:42;;;;;;;4.43;3.42;;;;;;;;;;5009245;28;20791;-73
2022/06/12 13:57:14;;;;;;;3.33;3.13;;;;;;;;;;5009994;28;20061;-74
2022/06/12 13:59:44;;;;;;;4.20;3.00;;;;;;;;;;4992870;28;20510;-73
2022/06/12 14:02:13;;;;;;;3.15;2.83;;;;;;;;;;5009081;28;20081;-72
2022/06/12 14:04:47;;;;;;;3.03;2.83;;;;;;;;;;5011388;28;20045;-72
2022/06/12 14:07:13;;;;;;;4.30;3.47;;;;;;;;;;4995676;28;20100;-72
2022/06/12 14:09:39;;;;;;;4.60;3.45;;;;;;;;;;5013351;28;20038;-73
2022/06/12 14:12:05;;;;;;;4.20;3.75;;;;;;;;;;4994098;28;20041;-73
2022/06/12 14:14:36;;;;;;;3.65;2.60;;;;;;;;;;5008507;28;20053;-74
2022/06/12 14:17:02;;;;;;;3.40;3.20;;;;;;;;;;4960169;28;20058;-73
2022/06/12 14:19:29;;;;;;;7.05;3.30;;;;;;;;;;5008235;28;20042;-72
2022/06/12 14:21:59;;;;;;;3.70;3.20;;;;;;;;;;5023637;28;20505;-73
2022/06/12 14:24:24;;;;;;;;;;;;;;;;;;5011969;28;20072;-73
2022/06/12 14:26:51;;;;;;;7.10;3.03;;;;;;;;;;5029275;28;20043;-74
2022/06/12 14:29:36;;;;;;;4.90;2.90;;;;;;;;;;5029342;28;20068;-73
2022/06/12 14:32:08;;;;;;;2.85;2.75;;;;;;;;;;5029145;28;20083;-73
2022/06/12 14:34:34;;;;;;;3.33;3.10;;;;;;;;;;5028897;28;20061;-74
2022/06/12 14:37:01;;;;;;;3.40;3.20;;;;;;;;;;5028957;28;20037;-75
2022/06/12 14:39:26;;;;;;;4.20;2.85;;;;;;;;;;5011073;28;20407;-73
2022/06/12 14:41:54;;;;;;;3.83;2.70;;;;;;;;;;5028836;28;20485;-75
2022/06/12 14:44:20;;;;;;;3.10;2.90;;;;;;;;;;5028945;28;20037;-73
2022/06/12 14:46:46;;;;;;;4.68;3.30;;;;;;;;;;5028650;28;20041;-73
2022/06/12 14:49:16;;;;;;;3.00;2.80;;;;;;;;;;5029017;28;20561;-73
2022/06/12 14:51:44;;;;;;;5.05;3.22;;;;;;;;;;5027500;28;20117;-73
2022/06/12 14:54:10;;;;;;;4.38;3.80;;;;;;;;;;5028725;28;20084;-73
2022/06/12 14:56:36;;;;;;;4.45;3.28;;;;;;;;;;5028953;28;20045;-73
2022/06/12 14:59:02;;;;;;;3.50;3.30;;;;;;;;;;4994746;28;20660;-74
2022/06/12 15:01:28;;;;;;;7.20;4.60;;;;;;;;;;5010128;28;20049;-73
2022/06/12 15:03:54;;;;;;;5.40;4.25;;;;;;;;;;5028621;28;20049;-74
2022/06/12 15:06:20;;;;;;;5.82;5.10;;;;;;;;;;5010923;28;20037;-73
2022/06/12 15:08:46;;;;;;;7.53;4.70;;;;;;;;;;5028373;28;20124;-74
2022/06/12 15:11:22;;;;;;;6.18;5.68;;;;;;;;;;5028412;28;20037;-73
2022/06/12 15:13:49;;;;;;;8.70;5.38;;;;;;;;;;5010670;28;20490;-74
2022/06/12 15:16:15;;;;;;;9.32;3.70;;;;;;;;;;5028079;28;20050;-74
2022/06/12 15:18:41;;;;;;;7.43;3.95;;;;;;;;;;5026685;28;20041;-73